createdAt,value
2022-12-13T00:01:47.211Z,-6.59
2022-12-13T00:04:15.522Z,-6.62
2022-12-13T00:06:45.394Z,-6.57
2022-12-13T00:09:15.081Z,-6.57
2022-12-13T00:11:43.337Z,-6.64
2022-12-13T00:14:11.648Z,-6.65
2022-12-13T00:16:39.580Z,-6.65
2022-12-13T00:19:07.987Z,-6.72
2022-12-13T00:21:36.184Z,-6.69
2022-12-13T00:24:08.281Z,-6.69
2022-12-13T00:26:36.608Z,-6.81
2022-12-13T00:29:07.324Z,-6.85
2022-12-13T00:31:59.270Z,-6.88
2022-12-13T00:34:24.657Z,-6.87
2022-12-13T00:36:54.122Z,-6.91
2022-12-13T00:39:23.564Z,-6.89
2022-12-13T00:41:52.147Z,-6.92
2022-12-13T00:44:20.416Z,-6.94
2022-12-13T00:46:51.709Z,-6.91
2022-12-13T00:49:20.318Z,-7.00
2022-12-13T00:51:49.633Z,-7.00
2022-12-13T00:54:17.708Z,-6.97
2022-12-13T00:56:46.969Z,-7.02
2022-12-13T00:59:16.157Z,-7.11
2022-12-13T01:01:44.480Z,-7.09
2022-12-13T01:04:13.241Z,-7.12
2022-12-13T01:06:43.239Z,-7.10
2022-12-13T01:09:17.114Z,-7.12
2022-12-13T01:11:46.978Z,-7.13
2022-12-13T01:14:15.346Z,-7.12
2022-12-13T01:16:43.547Z,-7.13
2022-12-13T01:19:11.445Z,-7.22
2022-12-13T01:21:39.398Z,-7.18
2022-12-13T01:24:08.369Z,-7.23
2022-12-13T01:26:36.419Z,-7.26
2022-12-13T01:29:05.930Z,-7.28
2022-12-13T01:31:34.076Z,-7.28
2022-12-13T01:34:10.680Z,-7.33
2022-12-13T01:36:39.337Z,-7.33
2022-12-13T01:39:07.763Z,-7.35
2022-12-13T01:41:43.438Z,-7.39
2022-12-13T01:44:44.476Z,-7.35
2022-12-13T01:47:17.437Z,-7.36
2022-12-13T01:49:45.780Z,-7.37
2022-12-13T01:52:16.359Z,-7.36
2022-12-13T01:54:50.025Z,-7.39
2022-12-13T01:57:21.099Z,-7.38
2022-12-13T01:59:51.464Z,-7.41
2022-12-13T02:02:20.980Z,-7.44
2022-12-13T02:04:54.886Z,-7.46
2022-12-13T02:07:27.710Z,-7.50
2022-12-13T02:09:58.420Z,-7.44
2022-12-13T02:12:30.342Z,-7.49
2022-12-13T02:15:00.391Z,-7.56
2022-12-13T02:17:44.954Z,-7.54
2022-12-13T02:20:49.965Z,-7.58
2022-12-13T02:23:34.646Z,-7.54
2022-12-13T02:26:42.514Z,-7.60
2022-12-13T02:29:34.639Z,-7.66
2022-12-13T02:32:11.415Z,-7.58
2022-12-13T02:34:45.766Z,-7.60
2022-12-13T02:37:21.767Z,-7.65
2022-12-13T02:39:55.223Z,-7.69
2022-12-13T02:42:27.597Z,-7.70
2022-12-13T02:45:01.188Z,-7.71
2022-12-13T02:47:33.203Z,-7.69
2022-12-13T02:50:05.209Z,-7.72
2022-12-13T02:52:34.001Z,-7.70
2022-12-13T02:55:08.225Z,-7.74
2022-12-13T02:57:38.463Z,-7.74
2022-12-13T03:00:09.474Z,-7.75
2022-12-13T03:02:46.786Z,-7.81
2022-12-13T03:05:43.534Z,-7.80
2022-12-13T03:08:23.660Z,-7.83
2022-12-13T03:11:04.523Z,-7.81
2022-12-13T03:13:38.674Z,-7.86
2022-12-13T03:16:14.447Z,-7.91
2022-12-13T03:18:54.219Z,-7.90
2022-12-13T03:21:23.493Z,-7.91
2022-12-13T03:23:51.862Z,-7.89
2022-12-13T03:26:22.313Z,-7.94
2022-12-13T03:28:50.205Z,-7.96
2022-12-13T03:31:18.460Z,-8.04
2022-12-13T03:33:47.064Z,-8.04
2022-12-13T03:36:18.839Z,-8.05
2022-12-13T03:38:47.480Z,-8.02
2022-12-13T03:41:20.279Z,-8.06
2022-12-13T03:43:48.424Z,-8.09
2022-12-13T03:46:16.646Z,-8.09
2022-12-13T03:48:44.551Z,-8.09
2022-12-13T03:51:12.495Z,-8.14
2022-12-13T03:53:41.748Z,-8.15
2022-12-13T03:56:09.640Z,-8.20
2022-12-13T03:58:38.506Z,-8.18
2022-12-13T04:01:08.038Z,-8.19
2022-12-13T04:03:36.969Z,-8.19
2022-12-13T04:06:05.930Z,-8.21
2022-12-13T04:08:34.150Z,-8.23
2022-12-13T04:11:24.699Z,-8.21
2022-12-13T04:13:52.595Z,-8.23
2022-12-13T04:16:20.536Z,-8.25
2022-12-13T04:18:48.594Z,-8.25
2022-12-13T04:21:16.761Z,-8.23
2022-12-13T04:23:44.737Z,-8.31
2022-12-13T04:26:14.216Z,-8.28
2022-12-13T04:28:42.253Z,-8.30
2022-12-13T04:31:10.303Z,-8.35
2022-12-13T04:33:38.381Z,-8.36
2022-12-13T04:36:06.842Z,-8.36
2022-12-13T04:38:34.764Z,-8.38
2022-12-13T04:41:07.282Z,-8.36
2022-12-13T04:43:36.737Z,-8.43
2022-12-13T04:46:04.802Z,-8.43
2022-12-13T04:48:33.450Z,-8.37
2022-12-13T04:51:02.283Z,-8.40
2022-12-13T04:53:30.524Z,-8.44
2022-12-13T04:55:58.517Z,-8.46
2022-12-13T04:58:26.492Z,-8.49
2022-12-13T05:00:55.790Z,-8.48
2022-12-13T05:03:24.238Z,-8.49
2022-12-13T05:05:52.144Z,-8.53
2022-12-13T05:08:20.105Z,-8.48
2022-12-13T05:10:48.040Z,-8.52
2022-12-13T05:13:16.046Z,-8.54
2022-12-13T05:15:43.976Z,-8.59
2022-12-13T05:18:13.313Z,-8.54
2022-12-13T05:20:41.216Z,-8.53
2022-12-13T05:23:10.022Z,-8.54
2022-12-13T05:25:37.917Z,-8.54
2022-12-13T05:28:26.860Z,-8.54
2022-12-13T05:30:55.415Z,-8.52
2022-12-13T05:33:39.050Z,-8.57
2022-12-13T05:36:07.769Z,-8.61
2022-12-13T05:38:35.972Z,-8.55
2022-12-13T05:41:03.878Z,-8.49
2022-12-13T05:43:42.402Z,-8.53
2022-12-13T05:46:12.457Z,-8.53
2022-12-13T05:48:42.035Z,-8.65
2022-12-13T05:51:12.032Z,-8.69
2022-12-13T05:53:40.968Z,-8.64
2022-12-13T05:56:10.452Z,-8.69
2022-12-13T05:58:41.156Z,-8.66
2022-12-13T06:01:10.958Z,-8.68
2022-12-13T06:03:39.050Z,-8.70
2022-12-13T06:06:10.509Z,-8.69
2022-12-13T06:08:38.719Z,-8.72
2022-12-13T06:11:11.657Z,-8.78
2022-12-13T06:13:43.239Z,-8.71
2022-12-13T06:16:21.863Z,-8.75
2022-12-13T06:18:54.454Z,-8.74
2022-12-13T06:21:31.184Z,-8.73
2022-12-13T06:24:11.543Z,-8.71
2022-12-13T06:26:39.347Z,-8.74
2022-12-13T06:29:07.333Z,-8.79
2022-12-13T06:31:35.201Z,-8.83
2022-12-13T06:34:14.925Z,-8.77
2022-12-13T06:36:44.673Z,-8.83
2022-12-13T06:39:12.583Z,-8.84
2022-12-13T06:41:40.607Z,-8.84
2022-12-13T06:44:08.451Z,-8.85
2022-12-13T06:46:36.406Z,-8.86
2022-12-13T06:49:08.767Z,-8.86
2022-12-13T06:51:36.549Z,-8.85
2022-12-13T06:54:05.706Z,-8.88
2022-12-13T06:56:33.830Z,-8.90
2022-12-13T06:59:02.399Z,-8.95
2022-12-13T07:01:37.561Z,-8.91
2022-12-13T07:04:29.012Z,-8.91
2022-12-13T07:06:54.761Z,-8.87
2022-12-13T07:09:24.030Z,-8.96
2022-12-13T07:11:52.597Z,-8.89
2022-12-13T07:14:20.853Z,-8.91
2022-12-13T07:16:48.723Z,-8.93
2022-12-13T07:19:23.419Z,-8.90
2022-12-13T07:21:52.715Z,-8.90
2022-12-13T07:24:20.777Z,-8.84
2022-12-13T07:26:50.014Z,-8.87
2022-12-13T07:29:22.689Z,-8.83
2022-12-13T07:31:50.819Z,-8.83
2022-12-13T07:34:18.755Z,-8.89
2022-12-13T07:36:46.721Z,-8.85
2022-12-13T07:39:14.554Z,-8.83
2022-12-13T07:41:42.416Z,-8.79
2022-12-13T07:44:11.564Z,-8.80
2022-12-13T07:46:39.433Z,-8.70
2022-12-13T07:49:07.474Z,-8.72
2022-12-13T07:51:35.578Z,-8.71
2022-12-13T07:54:06.791Z,-8.74
2022-12-13T07:56:35.359Z,-8.60
2022-12-13T07:59:03.513Z,-8.57
2022-12-13T08:01:34.543Z,-8.51
2022-12-13T08:04:02.857Z,-8.50
2022-12-13T08:06:31.091Z,-8.39
2022-12-13T08:08:59.197Z,-8.37
2022-12-13T08:11:27.133Z,-8.29
2022-12-13T08:13:55.056Z,-8.29
2022-12-13T08:16:26.383Z,-8.23
2022-12-13T08:19:01.161Z,-8.16
2022-12-13T08:24:23.475Z,-8.09
2022-12-13T08:26:51.492Z,-8.04
2022-12-13T08:29:22.914Z,-8.03
2022-12-13T08:32:02.130Z,-8.02
2022-12-13T08:34:32.644Z,-7.95
2022-12-13T08:37:02.417Z,-7.96
2022-12-13T08:39:34.467Z,-7.88
2022-12-13T08:42:16.415Z,-7.83
2022-12-13T08:44:46.837Z,-7.81
2022-12-13T08:47:22.642Z,-7.72
2022-12-13T08:49:55.283Z,-7.67
2022-12-13T08:52:24.073Z,-7.63
2022-12-13T08:54:52.522Z,-7.54
2022-12-13T08:57:20.566Z,-7.48
2022-12-13T08:59:48.419Z,-7.42
2022-12-13T09:02:17.451Z,-7.35
2022-12-13T09:04:45.393Z,-7.29
2022-12-13T09:07:14.601Z,-7.28
2022-12-13T09:09:42.522Z,-7.18
2022-12-13T09:12:29.651Z,-7.14
2022-12-13T09:15:01.369Z,-7.05
2022-12-13T09:17:36.448Z,-6.93
2022-12-13T09:20:10.327Z,-6.86
2022-12-13T09:23:01.326Z,-6.67
2022-12-13T09:25:36.559Z,-6.63
2022-12-13T09:28:07.906Z,-6.51
2022-12-13T09:30:35.994Z,-6.40
2022-12-13T09:33:18.005Z,-6.29
2022-12-13T09:35:53.782Z,-6.19
2022-12-13T09:38:23.321Z,-6.07
2022-12-13T09:40:58.785Z,-5.97
2022-12-13T09:43:33.109Z,-5.86
2022-12-13T09:46:22.119Z,-5.79
2022-12-13T09:48:53.014Z,-5.67
2022-12-13T09:51:44.114Z,-5.58
2022-12-13T09:54:20.467Z,-5.47
2022-12-13T09:56:50.887Z,-5.39
2022-12-13T09:59:22.531Z,-5.32
2022-12-13T10:01:50.413Z,-5.25
2022-12-13T10:04:19.361Z,-5.19
2022-12-13T10:06:47.397Z,-5.14
2022-12-13T10:09:15.521Z,-5.08
2022-12-13T10:11:53.116Z,-4.99
2022-12-13T10:14:27.674Z,-4.94
2022-12-13T10:16:59.042Z,-4.88
2022-12-13T10:19:34.872Z,-4.83
2022-12-13T10:22:05.809Z,-4.76
2022-12-13T10:24:50.525Z,-4.71
2022-12-13T10:27:21.728Z,-4.68
2022-12-13T10:30:10.667Z,-4.60
2022-12-13T10:32:47.129Z,-4.59
2022-12-13T10:35:24.393Z,-4.58
2022-12-13T10:37:53.003Z,-4.50
2022-12-13T10:40:32.058Z,-4.47
2022-12-13T10:43:14.181Z,-4.42
2022-12-13T10:45:43.185Z,-4.35
2022-12-13T10:48:21.319Z,-4.27
2022-12-13T10:51:00.430Z,-4.19
2022-12-13T10:53:32.404Z,-4.17
2022-12-13T10:56:02.129Z,-4.11
2022-12-13T10:58:41.046Z,-4.03
2022-12-13T11:01:14.948Z,-4.01
2022-12-13T11:03:42.920Z,-3.94
2022-12-13T11:06:15.000Z,-3.89
2022-12-13T11:08:43.100Z,-3.82
2022-12-13T11:11:13.020Z,-3.79
2022-12-13T11:13:46.051Z,-3.73
2022-12-13T11:16:25.003Z,-3.68
2022-12-13T11:18:56.477Z,-3.60
2022-12-13T11:21:27.204Z,-3.56
2022-12-13T11:23:57.470Z,-3.51
2022-12-13T11:26:31.967Z,-3.52
2022-12-13T11:29:19.375Z,-3.51
2022-12-13T11:31:55.899Z,-3.45
2022-12-13T11:34:33.740Z,-3.40
2022-12-13T11:37:12.212Z,-3.38
2022-12-13T11:39:44.435Z,-3.44
2022-12-13T11:42:23.497Z,-3.43
2022-12-13T11:45:01.828Z,-3.40
2022-12-13T11:47:36.751Z,-3.36
2022-12-13T11:50:16.465Z,-3.35
2022-12-13T11:52:53.442Z,-3.29
2022-12-13T11:55:25.481Z,-3.23
2022-12-13T11:57:59.703Z,-3.23
2022-12-13T12:00:37.945Z,-3.24
2022-12-13T12:03:18.386Z,-3.23
2022-12-13T12:05:56.064Z,-3.15
2022-12-13T12:08:34.946Z,-3.08
2022-12-13T12:11:13.204Z,-3.05
2022-12-13T12:13:51.236Z,-3.07
2022-12-13T12:16:30.667Z,-3.03
2022-12-13T12:19:01.345Z,-2.97
2022-12-13T12:22:12.345Z,-2.97
2022-12-13T12:24:33.534Z,-2.91
2022-12-13T12:27:22.237Z,-2.88
2022-12-13T12:30:03.867Z,-2.91
2022-12-13T12:32:42.842Z,-2.85
2022-12-13T12:35:26.051Z,-2.84
2022-12-13T12:38:00.914Z,-2.84
2022-12-13T12:41:15.816Z,-2.83
2022-12-13T12:43:42.098Z,-2.81
2022-12-13T12:46:26.557Z,-2.80
2022-12-13T12:49:17.957Z,-2.78
2022-12-13T12:51:51.947Z,-2.78
2022-12-13T12:54:33.950Z,-2.76
2022-12-13T12:57:10.959Z,-2.76
2022-12-13T12:59:49.248Z,-2.78
2022-12-13T13:02:23.029Z,-2.84
2022-12-13T13:04:59.105Z,-2.82
2022-12-13T13:07:32.496Z,-2.78
2022-12-13T13:10:25.607Z,-2.73
2022-12-13T13:13:11.647Z,-2.77
2022-12-13T13:16:06.060Z,-2.79
2022-12-13T13:18:51.474Z,-2.73
2022-12-13T13:21:46.038Z,-2.78
2022-12-13T13:24:25.688Z,-2.70
2022-12-13T13:26:55.882Z,-2.71
2022-12-13T13:29:33.303Z,-2.71
2022-12-13T13:32:05.156Z,-2.66
2022-12-13T13:34:36.300Z,-2.69
2022-12-13T13:37:23.001Z,-2.68
2022-12-13T13:40:00.777Z,-2.63
2022-12-13T13:42:29.850Z,-2.66
2022-12-13T13:45:20.044Z,-2.66
2022-12-13T13:47:55.710Z,-2.66
2022-12-13T13:50:50.138Z,-2.60
2022-12-13T13:53:51.513Z,-2.58
2022-12-13T13:56:36.225Z,-2.55
2022-12-13T13:59:58.913Z,-2.51
2022-12-13T14:02:58.581Z,-2.57
2022-12-13T14:06:12.695Z,-2.52
2022-12-13T14:09:00.199Z,-2.55
2022-12-13T14:12:04.712Z,-2.49
2022-12-13T14:15:01.425Z,-2.56
2022-12-13T14:18:02.722Z,-2.56
2022-12-13T14:20:46.711Z,-2.50
2022-12-13T14:23:30.232Z,-2.53
2022-12-13T14:26:11.779Z,-2.53
2022-12-13T14:28:48.652Z,-2.51
2022-12-13T14:31:22.491Z,-2.47
2022-12-13T14:33:52.985Z,-2.50
2022-12-13T14:36:29.031Z,-2.47
2022-12-13T14:39:05.111Z,-2.45
2022-12-13T14:41:33.993Z,-2.47
2022-12-13T14:44:17.369Z,-2.49
2022-12-13T14:46:58.243Z,-2.46
2022-12-13T14:49:28.569Z,-2.44
2022-12-13T14:52:01.701Z,-2.47
2022-12-13T14:54:37.062Z,-2.45
2022-12-13T14:57:05.940Z,-2.43
2022-12-13T14:59:34.392Z,-2.44
2022-12-13T15:02:06.392Z,-2.47
2022-12-13T15:04:36.085Z,-2.47
2022-12-13T15:07:07.909Z,-2.44
2022-12-13T15:09:38.799Z,-2.47
2022-12-13T15:12:24.914Z,-2.52
2022-12-13T15:14:59.668Z,-2.48
2022-12-13T15:17:34.940Z,-2.47
2022-12-13T15:20:24.910Z,-2.52
2022-12-13T15:23:15.708Z,-2.55
2022-12-13T15:26:00.234Z,-2.52
2022-12-13T15:28:30.347Z,-2.51
2022-12-13T15:31:00.453Z,-2.55
2022-12-13T15:33:35.460Z,-2.58
2022-12-13T15:36:10.800Z,-2.57
2022-12-13T15:38:41.618Z,-2.58
2022-12-13T15:41:18.147Z,-2.58
2022-12-13T15:43:49.705Z,-2.59
2022-12-13T15:46:25.873Z,-2.63
2022-12-13T15:48:57.346Z,-2.61
2022-12-13T15:51:29.609Z,-2.64
2022-12-13T15:54:04.864Z,-2.65
2022-12-13T15:56:34.521Z,-2.64
2022-12-13T15:59:04.437Z,-2.66
2022-12-13T16:01:35.399Z,-2.64
2022-12-13T16:04:06.219Z,-2.68
2022-12-13T16:06:34.967Z,-2.67
2022-12-13T16:09:05.309Z,-2.68
2022-12-13T16:11:36.481Z,-2.68
2022-12-13T16:14:38.089Z,-2.65
2022-12-13T16:17:14.448Z,-2.70
2022-12-13T16:19:44.669Z,-2.72
2022-12-13T16:22:12.623Z,-2.72
2022-12-13T16:24:40.527Z,-2.70
2022-12-13T16:27:10.720Z,-2.74
2022-12-13T16:29:38.606Z,-2.75
2022-12-13T16:32:08.133Z,-2.73
2022-12-13T16:34:37.052Z,-2.76
2022-12-13T16:37:09.025Z,-2.78
2022-12-13T16:39:54.507Z,-2.77
2022-12-13T16:42:25.834Z,-2.76
2022-12-13T16:45:17.740Z,-2.75
2022-12-13T16:47:48.494Z,-2.78
2022-12-13T16:50:19.222Z,-2.79
2022-12-13T16:52:48.951Z,-2.80
2022-12-13T16:55:17.345Z,-2.79
2022-12-13T16:57:56.399Z,-2.77
2022-12-13T17:00:24.402Z,-2.80
2022-12-13T17:02:52.436Z,-2.79
2022-12-13T17:05:20.672Z,-2.77
2022-12-13T17:07:49.964Z,-2.80
2022-12-13T17:10:19.397Z,-2.81
2022-12-13T17:12:47.532Z,-2.84
2022-12-13T17:15:17.219Z,-2.81
2022-12-13T17:17:46.517Z,-2.78
2022-12-13T17:20:16.966Z,-2.82
2022-12-13T17:22:46.056Z,-2.83
2022-12-13T17:25:15.635Z,-2.89
2022-12-13T17:27:43.516Z,-2.82
2022-12-13T17:30:15.529Z,-2.88
2022-12-13T17:32:43.324Z,-2.86
2022-12-13T17:35:17.862Z,-2.89
2022-12-13T17:37:46.411Z,-2.86
2022-12-13T17:40:16.686Z,-2.91
2022-12-13T17:42:45.444Z,-2.97
2022-12-13T17:45:13.216Z,-2.97
2022-12-13T17:47:41.120Z,-2.95
2022-12-13T17:50:09.950Z,-2.94
2022-12-13T17:52:39.072Z,-2.98
2022-12-13T17:55:07.824Z,-2.99
2022-12-13T17:57:37.246Z,-2.97
2022-12-13T18:00:06.287Z,-2.96
2022-12-13T18:02:40.907Z,-2.99
2022-12-13T18:05:17.594Z,-3.02
2022-12-13T18:07:50.858Z,-3.05
2022-12-13T18:10:18.989Z,-3.08
2022-12-13T18:12:48.155Z,-3.09
2022-12-13T18:15:15.980Z,-3.16
2022-12-13T18:18:10.230Z,-3.14
2022-12-13T18:20:31.706Z,-3.11
2022-12-13T18:22:59.617Z,-3.13
2022-12-13T18:25:27.563Z,-3.11
2022-12-13T18:28:01.035Z,-3.18
2022-12-13T18:30:31.087Z,-3.19
2022-12-13T18:32:59.026Z,-3.19
2022-12-13T18:35:26.873Z,-3.15
2022-12-13T18:37:54.833Z,-3.20
2022-12-13T18:40:22.707Z,-3.20
2022-12-13T18:42:50.588Z,-3.19
2022-12-13T18:45:20.177Z,-3.26
2022-12-13T18:47:48.035Z,-3.24
2022-12-13T18:50:16.131Z,-3.33
2022-12-13T18:52:44.356Z,-3.28
2022-12-13T18:55:12.189Z,-3.28
2022-12-13T18:57:40.132Z,-3.26
2022-12-13T19:00:09.077Z,-3.37
2022-12-13T19:02:39.207Z,-3.33
2022-12-13T19:05:07.213Z,-3.31
2022-12-13T19:07:35.046Z,-3.32
2022-12-13T19:10:03.127Z,-3.37
2022-12-13T19:12:32.104Z,-3.41
2022-12-13T19:14:59.939Z,-3.42
2022-12-13T19:17:27.796Z,-3.41
2022-12-13T19:19:57.283Z,-3.44
2022-12-13T19:22:25.131Z,-3.37
2022-12-13T19:24:52.954Z,-3.39
2022-12-13T19:27:20.773Z,-3.51
2022-12-13T19:29:48.911Z,-3.43
2022-12-13T19:32:16.819Z,-3.42
2022-12-13T19:34:44.673Z,-3.44
2022-12-13T19:37:14.028Z,-3.44
2022-12-13T19:39:41.840Z,-3.41
2022-12-13T19:42:10.233Z,-3.49
2022-12-13T19:44:38.068Z,-3.52
2022-12-13T19:47:06.552Z,-3.54
2022-12-13T19:49:34.409Z,-3.49
2022-12-13T19:52:02.577Z,-3.54
2022-12-13T19:54:31.736Z,-3.46
2022-12-13T19:57:26.717Z,-3.59
2022-12-13T19:59:54.541Z,-3.53
2022-12-13T20:02:22.380Z,-3.55
2022-12-13T20:04:51.036Z,-3.50
2022-12-13T20:07:19.134Z,-3.53
2022-12-13T20:09:48.337Z,-3.58
2022-12-13T20:12:16.274Z,-3.63
2022-12-13T20:14:44.874Z,-3.56
2022-12-13T20:17:12.759Z,-3.57
2022-12-13T20:19:41.091Z,-3.61
2022-12-13T20:22:08.902Z,-3.59
2022-12-13T20:24:36.941Z,-3.57
2022-12-13T20:27:06.554Z,-3.61
2022-12-13T20:29:34.532Z,-3.55
2022-12-13T20:32:02.508Z,-3.52
2022-12-13T20:34:30.383Z,-3.55
2022-12-13T20:36:58.407Z,-3.51
2022-12-13T20:39:26.218Z,-3.62
2022-12-13T20:41:54.014Z,-3.59
2022-12-13T20:44:23.357Z,-3.56
2022-12-13T20:46:51.251Z,-3.63
2022-12-13T20:49:19.263Z,-3.62
2022-12-13T20:51:47.148Z,-3.61
2022-12-13T20:54:14.991Z,-3.59
2022-12-13T20:56:42.907Z,-3.63
2022-12-13T20:59:13.388Z,-3.64
2022-12-13T21:01:45.006Z,-3.61
2022-12-13T21:04:16.962Z,-3.60
2022-12-13T21:06:44.859Z,-3.61
2022-12-13T21:09:13.154Z,-3.69
2022-12-13T21:11:43.237Z,-3.59
2022-12-13T21:14:18.770Z,-3.56
2022-12-13T21:16:51.472Z,-3.55
2022-12-13T21:19:23.877Z,-3.57
2022-12-13T21:21:52.711Z,-3.60
2022-12-13T21:24:22.428Z,-3.58
2022-12-13T21:26:51.122Z,-3.56
2022-12-13T21:29:19.415Z,-3.54
2022-12-13T21:31:49.821Z,-3.57
2022-12-13T21:34:20.379Z,-3.50
2022-12-13T21:36:49.679Z,-3.53
2022-12-13T21:39:19.317Z,-3.50
2022-12-13T21:41:47.609Z,-3.48
2022-12-13T21:44:17.886Z,-3.44
2022-12-13T21:49:35.316Z,-3.43
2022-12-13T21:52:03.137Z,-3.49
2022-12-13T21:54:30.980Z,-3.44
2022-12-13T21:57:16.725Z,-3.47
2022-12-13T21:59:44.522Z,-3.47
2022-12-13T22:02:16.172Z,-3.46
2022-12-13T22:04:47.369Z,-3.44
2022-12-13T22:07:17.538Z,-3.46
2022-12-13T22:09:46.538Z,-3.45
2022-12-13T22:12:21.944Z,-3.45
2022-12-13T22:14:50.196Z,-3.40
2022-12-13T22:17:18.595Z,-3.42
2022-12-13T22:19:48.383Z,-3.40
2022-12-13T22:22:17.192Z,-3.41
2022-12-13T22:24:49.896Z,-3.33
2022-12-13T22:27:23.887Z,-3.37
2022-12-13T22:29:52.386Z,-3.44
2022-12-13T22:32:20.435Z,-3.41
2022-12-13T22:34:49.835Z,-3.40
2022-12-13T22:37:18.114Z,-3.37
2022-12-13T22:39:45.937Z,-3.41
2022-12-13T22:42:13.804Z,-3.36
2022-12-13T22:44:41.568Z,-3.34
2022-12-13T22:47:09.463Z,-3.34
2022-12-13T22:49:38.098Z,-3.32
2022-12-13T22:52:07.393Z,-3.31
2022-12-13T22:54:35.803Z,-3.33
2022-12-13T22:57:03.833Z,-3.40
2022-12-13T22:59:32.052Z,-3.31
2022-12-13T23:02:02.670Z,-3.32
2022-12-13T23:04:33.710Z,-3.38
2022-12-13T23:07:01.824Z,-3.28
2022-12-13T23:09:31.038Z,-3.34
2022-12-13T23:12:16.653Z,-3.40
2022-12-13T23:14:44.465Z,-3.36
2022-12-13T23:17:12.372Z,-3.31
2022-12-13T23:19:50.234Z,-3.33
2022-12-13T23:22:22.291Z,-3.32
2022-12-13T23:24:52.092Z,-3.30
2022-12-13T23:27:21.913Z,-3.29
2022-12-13T23:29:49.797Z,-3.32
2022-12-13T23:32:17.673Z,-3.35
2022-12-13T23:34:45.596Z,-3.36
2022-12-13T23:37:13.584Z,-3.31
2022-12-13T23:39:41.517Z,-3.30
2022-12-13T23:42:10.764Z,-3.26
2022-12-13T23:44:38.993Z,-3.28
2022-12-13T23:47:07.023Z,-3.24
2022-12-13T23:49:35.010Z,-3.18
2022-12-13T23:52:03.003Z,-3.21
2022-12-13T23:54:30.792Z,-3.24
2022-12-13T23:56:58.657Z,-3.24
2022-12-13T23:59:28.631Z,-3.19
